Time;durP1;ratioP1;P1;durP2;ratioP2;P2;SDS_P1;SDS_P2;PMS_P1;PMS_P2;Temp;Humidity;BMP_temperature;BMP_pressure;BME280_temperature;BME280_humidity;BME280_pressure;Samples;Min_cycle;Max_cycle;Signal;HPM_P1;HPM_P2
2023/04/07 00:00:49;;;;;;;1.17;0.47;;;17.10;81.40;;;;;;6255635;23;19993;-72
2023/04/07 00:03:16;;;;;;;0.75;0.30;;;16.90;81.30;;;;;;6255384;23;20183;-72
2023/04/07 00:05:41;;;;;;;0.82;0.40;;;17.00;81.30;;;;;;6245641;23;19996;-72
2023/04/07 00:08:07;;;;;;;0.63;0.40;;;16.90;81.30;;;;;;6255525;23;20504;-72
2023/04/07 00:10:33;;;;;;;0.77;0.40;;;17.10;81.20;;;;;;6255432;23;20375;-72
2023/04/07 00:12:58;;;;;;;0.50;0.30;;;17.10;81.20;;;;;;6255362;23;20008;-72
2023/04/07 00:15:24;;;;;;;1.08;0.50;;;17.20;81.60;;;;;;6255480;23;20006;-72
2023/04/07 00:17:49;;;;;;;0.80;0.40;;;17.30;81.50;;;;;;6255294;23;20002;-72
2023/04/07 00:20:15;;;;;;;0.50;0.50;;;16.90;81.40;;;;;;6255254;23;19996;-72
2023/04/07 00:22:41;;;;;;;0.43;0.30;;;17.10;81.40;;;;;;6244964;23;20094;-72
2023/04/07 00:25:07;;;;;;;0.63;0.43;;;16.90;81.50;;;;;;6255327;23;19992;-71
2023/04/07 00:27:33;;;;;;;1.45;0.25;;;17.10;80.90;;;;;;6255325;23;20007;-72
2023/04/07 00:29:59;;;;;;;0.88;0.57;;;16.70;80.80;;;;;;6255246;23;20355;-72
2023/04/07 00:32:24;;;;;;;1.52;0.40;;;17.10;80.20;;;;;;6255159;23;20019;-72
2023/04/07 00:34:50;;;;;;;1.48;0.45;;;17.10;79.90;;;;;;6244915;23;19992;-72
2023/04/07 00:37:16;;;;;;;1.40;0.38;;;17.10;80.30;;;;;;6255100;23;19996;-72
2023/04/07 00:39:41;;;;;;;0.40;0.40;;;17.20;80.50;;;;;;6255174;23;19993;-72
2023/04/07 00:42:07;;;;;;;0.55;0.20;;;17.30;80.10;;;;;;6254926;23;20474;-72
2023/04/07 00:44:33;;;;;;;1.38;0.30;;;17.20;80.50;;;;;;6255154;23;19999;-71
2023/04/07 00:46:59;;;;;;;1.30;0.50;;;17.30;80.50;;;;;;6255040;23;20054;-72
2023/04/07 00:49:29;;;;;;;0.85;0.45;;;17.10;80.80;;;;;;6255089;23;20431;-72
2023/04/07 00:51:55;;;;;;;0.70;0.40;;;;;;;;;;6255017;23;20008;-72
2023/04/07 00:54:22;;;;;;;0.40;0.28;;;17.30;80.80;;;;;;6254964;23;20007;-72
2023/04/07 00:56:48;;;;;;;0.52;0.35;;;16.90;80.80;;;;;;6255116;23;20022;-72
2023/04/07 00:59:14;;;;;;;0.88;0.40;;;16.90;81.00;;;;;;6255015;23;19996;-72
2023/04/07 01:02:03;;;;;;;0.68;0.32;;;17.00;54.00;;;;;;6245071;23;20069;-72
2023/04/07 01:04:43;;;;;;;0.50;0.20;;;17.10;81.00;;;;;;6245161;23;20000;-72
2023/04/07 01:07:20;;;;;;;1.15;0.20;;;17.10;71.50;;;;;;6245100;23;19992;-72
2023/04/07 01:10:02;;;;;;;0.55;0.30;;;17.10;80.30;;;;;;6255021;23;20000;-72
2023/04/07 01:12:42;;;;;;;0.45;0.30;;;17.20;80.10;;;;;;6254822;23;20340;-72
2023/04/07 01:15:11;;;;;;;0.60;0.30;;;17.10;80.60;;;;;;6255027;23;19996;-72
2023/04/07 01:17:41;;;;;;;0.30;0.22;;;16.80;80.00;;;;;;6255014;23;20018;-72
2023/04/07 01:20:12;;;;;;;2.08;0.30;;;17.20;80.80;;;;;;6254919;23;20493;-72
2023/04/07 01:22:50;;;;;;;0.98;0.30;;;17.00;81.00;;;;;;6254957;23;20000;-71
2023/04/07 01:25:37;;;;;;;0.32;0.30;;;17.10;81.20;;;;;;6244996;23;20000;-72
2023/04/07 01:28:03;;;;;;;1.15;0.32;;;16.90;80.90;;;;;;6244551;23;20004;-72
2023/04/07 01:30:34;;;;;;;0.50;0.38;;;17.00;80.20;;;;;;6244773;23;20492;-72
2023/04/07 01:33:01;;;;;;;1.25;0.40;;;16.80;79.60;;;;;;6254781;23;20470;-72
2023/04/07 01:35:31;;;;;;;0.52;0.30;;;16.70;79.70;;;;;;6254558;23;19999;-72
2023/04/07 01:37:59;;;;;;;1.63;0.45;;;17.00;54.00;;;;;;6254849;23;20362;-72
2023/04/07 01:40:25;;;;;;;0.68;0.50;;;16.90;79.60;;;;;;6254793;23;20008;-72
2023/04/07 01:42:52;;;;;;;0.47;0.30;;;17.20;80.20;;;;;;6254732;23;20455;-72
2023/04/07 01:45:19;;;;;;;1.10;0.40;;;16.70;80.00;;;;;;6244825;23;20351;-72
2023/04/07 01:47:45;;;;;;;1.38;0.73;;;17.00;54.10;;;;;;6254736;23;20003;-72
2023/04/07 01:50:12;;;;;;;2.00;0.30;;;17.10;79.80;;;;;;6254670;23;20000;-72
2023/04/07 01:52:38;;;;;;;1.33;0.50;;;17.10;79.90;;;;;;6254691;23;20004;-72
2023/04/07 01:55:05;;;;;;;0.85;0.40;;;17.00;79.80;;;;;;6244281;23;20431;-72
2023/04/07 01:57:30;;;;;;;0.63;0.20;;;17.10;80.00;;;;;;6254475;23;20027;-72
2023/04/07 01:59:56;;;;;;;0.47;0.40;;;16.90;80.20;;;;;;6254511;23;20000;-72
2023/04/07 02:02:23;;;;;;;0.68;0.57;;;17.20;79.60;;;;;;6244557;23;20000;-71
2023/04/07 02:04:55;;;;;;;1.58;0.68;;;16.70;79.40;;;;;;6244355;23;20003;-72
2023/04/07 02:07:28;;;;;;;1.35;0.30;;;17.10;79.30;;;;;;6254760;23;20018;-72
2023/04/07 02:09:59;;;;;;;0.75;0.40;;;17.20;79.80;;;;;;6254825;23;20389;-72
2023/04/07 02:12:30;;;;;;;0.85;0.35;;;17.00;79.10;;;;;;6217963;23;20008;-72
2023/04/07 02:14:57;;;;;;;1.65;0.30;;;17.10;79.70;;;;;;6254692;23;20450;-72
2023/04/07 02:17:24;;;;;;;0.50;0.30;;;17.00;80.00;;;;;;6254673;23;20075;-72
2023/04/07 02:19:52;;;;;;;1.13;0.25;;;17.00;80.20;;;;;;6254864;23;20071;-72
2023/04/07 02:22:18;;;;;;;0.63;0.22;;;17.10;80.20;;;;;;6254498;23;20007;-72
2023/04/07 02:24:44;;;;;;;1.92;0.50;;;17.00;80.50;;;;;;6254532;23;19996;-72
2023/04/07 02:27:10;;;;;;;0.35;0.25;;;17.00;80.40;;;;;;6254623;23;20360;-72
2023/04/07 02:29:35;;;;;;;0.70;0.30;;;17.10;80.60;;;;;;6254547;23;20071;-72
2023/04/07 02:32:01;;;;;;;2.50;0.50;;;17.00;80.50;;;;;;6254518;23;20031;-72
2023/04/07 02:34:27;;;;;;;1.05;0.40;;;;;;;;;;6244259;23;19997;-72
2023/04/07 02:36:53;;;;;;;1.00;0.40;;;16.90;80.60;;;;;;6244544;23;19996;-72
2023/04/07 02:39:19;;;;;;;0.20;0.20;;;16.80;80.50;;;;;;6244462;23;20460;-72
2023/04/07 02:41:45;;;;;;;0.57;0.40;;;17.10;80.70;;;;;;6244548;23;20007;-72
2023/04/07 02:44:11;;;;;;;1.95;0.50;;;17.00;80.70;;;;;;6213844;23;20367;-72
2023/04/07 02:46:37;;;;;;;0.57;0.25;;;16.80;80.70;;;;;;6215299;23;20379;-72
2023/04/07 02:49:03;;;;;;;1.75;0.40;;;16.80;80.90;;;;;;6215785;23;19993;-72
2023/04/07 02:51:30;;;;;;;1.05;0.45;;;17.10;81.00;;;;;;6215978;23;20073;-72
2023/04/07 02:53:56;;;;;;;1.08;0.40;;;17.00;80.40;;;;;;6215931;23;20005;-72
2023/04/07 02:56:22;;;;;;;1.55;0.60;;;17.10;80.80;;;;;;6215545;23;20071;-72
2023/04/07 02:58:48;;;;;;;1.23;0.40;;;17.00;80.90;;;;;;6215621;23;20421;-72
2023/04/07 03:01:14;;;;;;;2.05;0.47;;;;;;;;;;6216015;23;20023;-72
2023/04/07 03:03:43;;;;;;;1.45;0.32;;;16.70;81.00;;;;;;6215381;23;20000;-72
2023/04/07 03:06:09;;;;;;;0.90;0.25;;;16.80;80.40;;;;;;6215975;23;20020;-72
2023/04/07 03:08:35;;;;;;;0.60;0.30;;;16.90;81.40;;;;;;6215584;23;20000;-72
2023/04/07 03:11:01;;;;;;;1.67;0.70;;;17.10;81.40;;;;;;6215960;23;20012;-72
2023/04/07 03:13:29;;;;;;;0.30;0.20;;;17.10;80.40;;;;;;6215735;23;20039;-72
2023/04/07 03:15:56;;;;;;;1.48;0.40;;;17.10;80.30;;;;;;6215435;23;20001;-72
2023/04/07 03:18:23;;;;;;;1.10;0.40;;;16.80;80.30;;;;;;6215827;23;20007;-72
2023/04/07 03:20:51;;;;;;;0.95;0.30;;;;;;;;;;6215738;23;19992;-72
2023/04/07 03:23:18;;;;;;;2.25;0.52;;;;;;;;;;6215387;23;20561;-72
2023/04/07 03:25:44;;;;;;;1.45;0.25;;;17.10;80.60;;;;;;6215528;23;19996;-72
2023/04/07 03:28:10;;;;;;;1.13;0.47;;;17.00;81.00;;;;;;6215618;23;19996;-72
2023/04/07 03:30:36;;;;;;;1.08;0.30;;;16.90;80.80;;;;;;6215531;23;20035;-72
2023/04/07 03:33:02;;;;;;;3.33;0.50;;;17.10;80.80;;;;;;6215516;23;20054;-72
2023/04/07 03:35:28;;;;;;;1.13;0.52;;;16.70;80.40;;;;;;6215690;23;20016;-72
2023/04/07 03:37:54;;;;;;;0.30;0.30;;;17.00;80.60;;;;;;6215224;23;20001;-72
2023/04/07 03:40:20;;;;;;;0.80;0.38;;;16.50;80.30;;;;;;6215610;23;20491;-72
2023/04/07 03:42:47;;;;;;;0.60;0.35;;;16.80;80.60;;;;;;6227903;23;20046;-71
2023/04/07 03:45:13;;;;;;;0.98;0.40;;;17.10;80.80;;;;;;6245598;23;19999;-72
2023/04/07 03:47:40;;;;;;;3.28;0.40;;;;;;;;;;6245907;23;20374;-72
2023/04/07 03:50:06;;;;;;;0.55;0.30;;;16.90;80.20;;;;;;6245451;23;20000;-72
2023/04/07 03:52:32;;;;;;;1.45;0.50;;;17.00;81.40;;;;;;6245835;23;20088;-72
2023/04/07 03:54:58;;;;;;;1.88;0.70;;;17.00;81.10;;;;;;6245825;23;20024;-72
2023/04/07 03:57:24;;;;;;;0.90;0.50;;;17.00;81.20;;;;;;6245547;23;20095;-71
2023/04/07 03:59:50;;;;;;;0.68;0.30;;;17.00;81.70;;;;;;6245732;23;19996;-72
2023/04/07 04:02:17;;;;;;;1.15;0.38;;;16.80;81.70;;;;;;6245371;23;19993;-72
2023/04/07 04:04:44;;;;;;;2.03;0.45;;;;;;;;;;6245286;23;20064;-72
2023/04/07 04:07:10;;;;;;;1.60;0.75;;;;;;;;;;6245599;23;20000;-72
2023/04/07 04:09:36;;;;;;;1.42;0.45;;;16.60;81.60;;;;;;6245585;23;20011;-72
2023/04/07 04:12:02;;;;;;;1.08;0.43;;;16.80;81.80;;;;;;6245136;23;20008;-72
2023/04/07 04:14:28;;;;;;;1.45;0.30;;;;;;;;;;6245643;23;20008;-72
2023/04/07 04:16:55;;;;;;;1.00;0.40;;;;;;;;;;6245585;23;20004;-72
2023/04/07 04:19:20;;;;;;;1.08;0.45;;;16.90;82.00;;;;;;6255466;23;20003;-72
2023/04/07 04:21:46;;;;;;;1.15;0.35;;;16.90;82.20;;;;;;6245501;23;19996;-72
2023/04/07 04:24:12;;;;;;;0.95;0.32;;;17.00;65.90;;;;;;6255402;23;19996;-72
2023/04/07 04:26:37;;;;;;;1.27;0.40;;;16.80;82.20;;;;;;6255408;23;20000;-72
2023/04/07 04:29:03;;;;;;;0.40;0.35;;;16.80;82.10;;;;;;6255316;23;19999;-72
2023/04/07 04:31:28;;;;;;;2.83;0.88;;;17.00;82.30;;;;;;6255246;23;20068;-72
2023/04/07 04:33:54;;;;;;;1.67;0.40;;;16.70;82.20;;;;;;6245446;23;20008;-72
2023/04/07 04:36:20;;;;;;;1.08;0.68;;;16.90;82.20;;;;;;6245272;23;20018;-72
2023/04/07 04:38:46;;;;;;;0.90;0.52;;;17.00;82.30;;;;;;6244988;23;20024;-72
2023/04/07 04:41:12;;;;;;;1.75;0.60;;;17.00;82.30;;;;;;6244936;23;20443;-72
2023/04/07 04:43:38;;;;;;;0.90;0.30;;;16.90;75.70;;;;;;6254963;23;20008;-72
2023/04/07 04:46:03;;;;;;;0.82;0.35;;;16.90;82.50;;;;;;6255176;23;20092;-72
2023/04/07 04:48:29;;;;;;;0.60;0.40;;;17.00;82.40;;;;;;6255224;23;20343;-72
2023/04/07 04:50:55;;;;;;;1.75;0.40;;;;;;;;;;6255129;23;20003;-72
2023/04/07 04:53:21;;;;;;;0.65;0.38;;;;;;;;;;6254961;23;20008;-72
2023/04/07 04:55:50;;;;;;;0.98;0.40;;;17.00;82.00;;;;;;6245272;23;20292;-72
2023/04/07 04:58:19;;;;;;;2.00;0.50;;;16.90;82.30;;;;;;6255226;23;20000;-72
2023/04/07 05:00:45;;;;;;;1.85;0.50;;;16.80;78.10;;;;;;6255156;23;20022;-72
2023/04/07 05:03:10;;;;;;;0.50;0.30;;;16.80;82.20;;;;;;6255008;23;20443;-72
2023/04/07 05:05:36;;;;;;;0.63;0.40;;;17.00;77.30;;;;;;6255086;23;20137;-72
2023/04/07 05:08:02;;;;;;;0.38;0.30;;;16.70;67.20;;;;;;6255053;23;20003;-72
2023/04/07 05:10:28;;;;;;;0.88;0.40;;;;;;;;;;6254563;23;20006;-72
2023/04/07 05:12:53;;;;;;;1.67;0.47;;;16.80;82.20;;;;;;6254843;23;20012;-72
2023/04/07 05:15:19;;;;;;;1.77;0.30;;;16.80;81.70;;;;;;6255039;23;19992;-71
2023/04/07 05:17:49;;;;;;;1.60;0.40;;;17.00;82.00;;;;;;6255039;23;20000;-72
2023/04/07 05:20:15;;;;;;;2.23;0.30;;;16.70;82.20;;;;;;6245055;23;20308;-72
2023/04/07 05:22:41;;;;;;;1.48;0.40;;;;;;;;;;6254935;23;20247;-72
2023/04/07 05:25:07;;;;;;;0.90;0.30;;;16.90;82.10;;;;;;6254951;23;20046;-74
2023/04/07 05:27:33;;;;;;;1.10;0.40;;;17.00;82.60;;;;;;6251178;23;19996;-73
2023/04/07 05:29:59;;;;;;;0.65;0.25;;;17.10;82.40;;;;;;6244495;23;20126;-71
2023/04/07 05:32:27;;;;;;;1.55;0.40;;;16.80;82.30;;;;;;6244937;23;20031;-71
2023/04/07 05:34:53;;;;;;;0.93;0.40;;;17.00;82.20;;;;;;6244960;23;19996;-71
2023/04/07 05:37:19;;;;;;;1.27;0.50;;;17.00;82.50;;;;;;6244944;23;20022;-71
2023/04/07 05:39:45;;;;;;;2.42;0.30;;;;;;;;;;6244518;23;20439;-72
2023/04/07 05:42:11;;;;;;;1.25;0.43;;;16.90;82.30;;;;;;6244555;23;20032;-72
2023/04/07 05:44:37;;;;;;;0.50;0.40;;;17.10;82.20;;;;;;6244854;23;20007;-72
2023/04/07 05:47:07;;;;;;;1.08;0.30;;;;;;;;;;6244436;23;20331;-72
2023/04/07 05:49:34;;;;;;;0.95;0.28;;;16.90;54.00;;;;;;6244743;23;20056;-72
2023/04/07 05:52:02;;;;;;;0.65;0.22;;;17.00;82.40;;;;;;6244546;23;20083;-72
2023/04/07 05:54:28;;;;;;;0.32;0.25;;;17.00;82.50;;;;;;6244587;23;20000;-72
2023/04/07 05:56:55;;;;;;;1.85;0.28;;;17.10;82.70;;;;;;6244662;23;20007;-72
2023/04/07 05:59:21;;;;;;;0.40;0.30;;;16.60;82.20;;;;;;6244470;23;20022;-72
2023/04/07 06:01:48;;;;;;;1.55;0.32;;;16.90;82.40;;;;;;6244783;23;20019;-72
2023/04/07 06:04:14;;;;;;;0.73;0.38;;;16.90;82.70;;;;;;6244893;23;20000;-72
2023/04/07 06:06:40;;;;;;;0.32;0.20;;;16.90;81.80;;;;;;6244433;23;20327;-72
2023/04/07 06:09:06;;;;;;;0.28;0.20;;;;;;;;;;6244894;23;20004;-72
2023/04/07 06:11:32;;;;;;;0.93;0.25;;;17.00;82.40;;;;;;6244858;23;20000;-72
2023/04/07 06:13:58;;;;;;;1.05;0.30;;;17.10;82.90;;;;;;6244911;23;20057;-72
2023/04/07 06:16:24;;;;;;;2.60;0.40;;;16.90;82.50;;;;;;6244295;23;20003;-75
2023/04/07 06:18:50;;;;;;;1.02;0.47;;;17.00;81.70;;;;;;6247252;23;20428;-72
2023/04/07 06:21:16;;;;;;;1.20;0.70;;;17.10;82.70;;;;;;6245692;23;19992;-73
2023/04/07 06:23:42;;;;;;;0.90;0.55;;;17.00;82.50;;;;;;6246381;23;20066;-72
2023/04/07 06:26:12;;;;;;;1.10;0.45;;;17.10;82.60;;;;;;6246810;23;20003;-72
2023/04/07 06:28:38;;;;;;;0.70;0.30;;;16.90;82.40;;;;;;6246783;23;20028;-71
2023/04/07 06:31:05;;;;;;;1.13;0.25;;;17.00;82.60;;;;;;6246836;23;20000;-72
2023/04/07 06:33:31;;;;;;;1.80;0.50;;;16.80;82.40;;;;;;6246691;23;20035;-73
2023/04/07 06:35:57;;;;;;;0.93;0.50;;;16.90;82.60;;;;;;6256619;23;20301;-72
2023/04/07 06:38:23;;;;;;;0.68;0.35;;;17.00;82.90;;;;;;6246799;23;20023;-71
2023/04/07 06:40:48;;;;;;;1.33;0.40;;;17.00;82.80;;;;;;6256572;23;20067;-72
2023/04/07 06:43:14;;;;;;;0.50;0.50;;;16.60;82.50;;;;;;6256306;23;20012;-71
2023/04/07 06:45:40;;;;;;;1.10;0.30;;;16.90;82.80;;;;;;6256593;23;20000;-73
2023/04/07 06:48:06;;;;;;;0.82;0.30;;;;;;;;;;6263155;23;20442;-72
2023/04/07 06:50:32;;;;;;;1.23;0.45;;;;;;;;;;6255974;23;19996;-73
2023/04/07 06:52:58;;;;;;;1.08;0.30;;;16.90;64.90;;;;;;6255921;23;20012;-71
2023/04/07 06:55:25;;;;;;;1.65;0.35;;;;;;;;;;6256036;23;19993;-71
2023/04/07 06:57:51;;;;;;;0.95;0.40;;;17.00;82.60;;;;;;6246962;23;20334;-71
2023/04/07 07:00:17;;;;;;;1.50;0.47;;;17.00;83.00;;;;;;6246362;23;20065;-71
2023/04/07 07:02:43;;;;;;;0.75;0.35;;;17.00;82.90;;;;;;6219301;23;20419;-73
2023/04/07 07:05:10;;;;;;;1.55;0.40;;;17.10;82.70;;;;;;6246260;23;19992;-72
2023/04/07 07:07:36;;;;;;;1.20;0.40;;;17.00;62.50;;;;;;6245690;23;20004;-72
2023/04/07 07:10:02;;;;;;;0.95;0.40;;;17.00;54.10;;;;;;6255942;23;19996;-72
2023/04/07 07:12:28;;;;;;;1.33;0.50;;;17.10;69.20;;;;;;6246005;23;20316;-72
2023/04/07 07:14:54;;;;;;;1.27;0.55;;;;;;;;;;6256092;23;20165;-72
2023/04/07 07:17:20;;;;;;;0.90;0.40;;;;;;;;;;6256243;23;20054;-73
2023/04/07 07:19:45;;;;;;;2.05;0.40;;;17.00;82.80;;;;;;6246210;23;20332;-73
2023/04/07 07:22:11;;;;;;;2.72;0.90;;;;;;;;;;6256067;23;19996;-72
2023/04/07 07:24:37;;;;;;;1.60;0.40;;;17.10;82.70;;;;;;6256184;23;19992;-71
2023/04/07 07:27:03;;;;;;;3.47;0.43;;;17.00;76.70;;;;;;6256266;23;20003;-72
2023/04/07 07:29:29;;;;;;;1.65;0.20;;;16.90;82.50;;;;;;6245768;23;19992;-72
2023/04/07 07:31:55;;;;;;;2.25;0.47;;;;;;;;;;6245752;23;20005;-72
2023/04/07 07:34:22;;;;;;;0.93;0.20;;;;;;;;;;6245427;23;20000;-71
2023/04/07 07:36:48;;;;;;;5.45;0.65;;;17.10;82.80;;;;;;6246011;23;20046;-72
2023/04/07 07:39:14;;;;;;;1.83;0.30;;;17.10;83.10;;;;;;6246023;23;20071;-72
2023/04/07 07:41:40;;;;;;;2.30;0.28;;;16.60;83.00;;;;;;6246099;23;19992;-72
2023/04/07 07:44:06;;;;;;;3.35;0.30;;;;;;;;;;6245508;23;20022;-72
2023/04/07 07:46:32;;;;;;;1.98;0.32;;;17.10;80.80;;;;;;6255917;23;19996;-72
2023/04/07 07:48:58;;;;;;;1.27;0.30;;;;;;;;;;6255791;23;20066;-72
2023/04/07 07:51:23;;;;;;;3.20;0.52;;;16.80;83.30;;;;;;6255851;23;20060;-72
2023/04/07 07:53:49;;;;;;;1.23;0.20;;;;;;;;;;6255640;23;20004;-72
2023/04/07 07:56:15;;;;;;;2.22;0.38;;;;;;;;;;6255755;23;20459;-72
2023/04/07 07:58:41;;;;;;;1.98;0.55;;;17.00;83.60;;;;;;6255689;23;20023;-72
2023/04/07 08:01:07;;;;;;;1.30;0.30;;;17.10;83.10;;;;;;6245850;23;19993;-72
2023/04/07 08:03:33;;;;;;;2.63;0.50;;;17.00;77.50;;;;;;6245234;23;20000;-72
2023/04/07 08:05:59;;;;;;;0.82;0.30;;;17.30;83.50;;;;;;6245592;23;19996;-72
2023/04/07 08:08:26;;;;;;;0.65;0.40;;;;;;;;;;6245410;23;20000;-71
2023/04/07 08:10:52;;;;;;;0.95;0.20;;;17.00;83.10;;;;;;6245445;23;20003;-72
2023/04/07 08:13:18;;;;;;;1.52;0.30;;;17.00;83.30;;;;;;6245327;23;20012;-71
2023/04/07 08:15:44;;;;;;;0.90;0.30;;;17.30;83.60;;;;;;6245020;23;20023;-72
2023/04/07 08:18:10;;;;;;;1.33;0.35;;;17.10;62.50;;;;;;6245095;23;20428;-72
2023/04/07 08:20:37;;;;;;;1.05;0.20;;;;;;;;;;6245397;23;20055;-72
2023/04/07 08:23:03;;;;;;;1.20;0.40;;;17.20;83.50;;;;;;6244965;23;20004;-73
2023/04/07 08:25:30;;;;;;;1.92;0.38;;;;;;;;;;6245333;23;20003;-72
2023/04/07 08:27:56;;;;;;;0.85;0.32;;;;;;;;;;6255169;23;20000;-72
2023/04/07 08:30:22;;;;;;;2.42;0.40;;;17.10;83.00;;;;;;6244878;23;20059;-72
2023/04/07 08:32:48;;;;;;;1.55;0.38;;;;;;;;;;6251344;23;20011;-76
2023/04/07 08:35:14;;;;;;;1.40;0.60;;;17.30;83.60;;;;;;6245019;23;20514;-72
2023/04/07 08:37:42;;;;;;;4.93;0.80;;;17.20;83.30;;;;;;6245377;23;20000;-74
2023/04/07 08:40:09;;;;;;;3.20;0.50;;;17.20;83.70;;;;;;6245300;23;20003;-73
2023/04/07 08:42:40;;;;;;;2.45;0.47;;;17.20;54.40;;;;;;6244403;23;20012;-73
2023/04/07 08:45:08;;;;;;;1.67;0.55;;;17.20;83.40;;;;;;6245059;23;20003;-74
2023/04/07 08:47:36;;;;;;;1.52;0.50;;;17.20;54.60;;;;;;6245260;23;20062;-73
2023/04/07 08:50:07;;;;;;;2.33;0.45;;;17.20;68.00;;;;;;6245047;23;19992;-73
2023/04/07 08:52:37;;;;;;;5.05;0.73;;;17.60;54.60;;;;;;6244990;23;20079;-73
2023/04/07 08:55:05;;;;;;;3.97;1.13;;;;;;;;;;6244824;23;19996;-73
2023/04/07 08:57:32;;;;;;;4.07;0.60;;;17.10;83.50;;;;;;6245103;23;20067;-75
2023/04/07 09:00:05;;;;;;;3.08;0.75;;;17.30;83.60;;;;;;6244708;23;20076;-74
2023/04/07 09:02:37;;;;;;;5.25;0.80;;;17.00;83.30;;;;;;6244913;23;20050;-73
2023/04/07 09:05:05;;;;;;;3.13;0.60;;;17.10;64.00;;;;;;6244940;23;20003;-73
2023/04/07 09:07:33;;;;;;;2.03;0.25;;;17.20;54.70;;;;;;6245042;23;19992;-73
2023/04/07 09:10:00;;;;;;;2.42;0.70;;;17.10;83.40;;;;;;6244639;23;19997;-73
2023/04/07 09:12:28;;;;;;;1.40;0.73;;;17.40;83.80;;;;;;6244827;23;20032;-73
2023/04/07 09:14:54;;;;;;;3.08;0.75;;;17.40;84.00;;;;;;6244695;23;20071;-74
2023/04/07 09:17:21;;;;;;;2.45;0.52;;;;;;;;;;6244843;23;20020;-73
2023/04/07 09:19:47;;;;;;;2.85;0.73;;;17.00;83.60;;;;;;6244532;23;20071;-73
2023/04/07 09:22:14;;;;;;;3.30;0.60;;;17.20;83.90;;;;;;6244515;23;20011;-75
2023/04/07 09:24:41;;;;;;;2.10;0.73;;;17.20;54.60;;;;;;6244469;23;20054;-72
2023/04/07 09:27:14;;;;;;;5.00;0.50;;;17.30;84.00;;;;;;6244835;23;20007;-73
2023/04/07 09:29:42;;;;;;;2.75;0.70;;;17.10;83.80;;;;;;6244586;23;20000;-74
2023/04/07 09:32:09;;;;;;;3.45;0.57;;;17.10;78.30;;;;;;6244448;23;20440;-74
2023/04/07 09:34:40;;;;;;;2.75;0.50;;;16.90;80.60;;;;;;6244909;23;20363;-74
2023/04/07 09:37:08;;;;;;;1.25;0.60;;;17.40;80.90;;;;;;6244478;23;20000;-74
2023/04/07 09:39:49;;;;;;;1.60;0.60;;;17.30;81.00;;;;;;6244369;23;20015;-74
2023/04/07 09:42:15;;;;;;;1.70;0.40;;;17.30;80.70;;;;;;6244289;23;20469;-74
2023/04/07 09:44:42;;;;;;;1.77;0.40;;;17.30;80.90;;;;;;6244901;23;20438;-73
2023/04/07 09:47:09;;;;;;;1.70;0.50;;;17.40;80.70;;;;;;6244805;23;20035;-73
2023/04/07 09:49:50;;;;;;;5.40;0.80;;;17.40;80.90;;;;;;6244703;23;20003;-73
2023/04/07 09:52:18;;;;;;;2.83;0.43;;;;;;;;;;6244396;23;20009;-75
2023/04/07 09:54:45;;;;;;;3.60;0.47;;;17.20;80.80;;;;;;6244424;23;20075;-73
2023/04/07 09:57:12;;;;;;;1.33;0.40;;;17.30;55.50;;;;;;6244442;23;20313;-73
2023/04/07 09:59:43;;;;;;;3.58;0.73;;;17.30;81.40;;;;;;6244662;23;19996;-73
2023/04/07 10:02:11;;;;;;;1.95;0.63;;;17.10;80.90;;;;;;6244548;23;19997;-72
2023/04/07 10:04:39;;;;;;;2.75;0.70;;;17.50;80.70;;;;;;6244657;23;20320;-71
2023/04/07 10:07:05;;;;;;;2.30;0.50;;;17.60;80.30;;;;;;6244690;23;20001;-75
2023/04/07 10:09:31;;;;;;;2.63;1.00;;;17.50;80.40;;;;;;6244216;23;19993;-72
2023/04/07 10:11:58;;;;;;;5.15;0.60;;;17.50;80.60;;;;;;6244289;23;20084;-71
2023/04/07 10:14:30;;;;;;;2.08;0.70;;;17.40;80.50;;;;;;6244467;23;20353;-72
2023/04/07 10:17:02;;;;;;;0.90;0.50;;;17.60;72.80;;;;;;6244079;23;20073;-70
2023/04/07 10:19:33;;;;;;;1.55;0.52;;;17.40;80.70;;;;;;6243874;23;20424;-72
2023/04/07 10:22:02;;;;;;;2.25;0.80;;;17.60;81.40;;;;;;6243890;23;19992;-72
2023/04/07 10:25:09;;;;;;;1.60;0.50;;;17.70;81.40;;;;;;6244433;23;19996;-72
2023/04/07 10:27:48;;;;;;;2.65;0.88;;;17.50;54.90;;;;;;6171642;23;20007;-73
2023/04/07 10:30:29;;;;;;;1.05;0.30;;;17.50;81.80;;;;;;6244254;23;20455;-72
2023/04/07 10:32:55;;;;;;;;;;;17.50;55.40;;;;;;6244501;23;20008;-72
2023/04/07 10:35:22;;;;;;;1.23;0.43;;;17.00;81.40;;;;;;6244795;23;19995;-71
2023/04/07 10:38:06;;;;;;;1.67;0.32;;;17.50;81.70;;;;;;6244514;23;19993;-72
2023/04/07 10:40:34;;;;;;;1.17;0.40;;;17.70;81.90;;;;;;6244083;23;20000;-72
2023/04/07 10:43:00;;;;;;;2.47;0.50;;;17.60;72.40;;;;;;6244089;23;20012;-74
2023/04/07 10:45:48;;;;;;;2.17;0.45;;;17.50;54.70;;;;;;6244651;23;19996;-77
2023/04/07 10:48:16;;;;;;;5.15;0.50;;;17.60;81.50;;;;;;6244142;23;20394;-72
2023/04/07 10:50:42;;;;;;;2.72;0.32;;;17.40;81.60;;;;;;6244079;23;20481;-73
2023/04/07 10:53:11;;;;;;;2.40;0.73;;;17.50;81.70;;;;;;6217198;23;20050;-73
2023/04/07 10:55:37;;;;;;;3.22;0.60;;;17.40;81.60;;;;;;6217655;23;20007;-73
2023/04/07 10:58:22;;;;;;;1.88;0.52;;;17.70;81.50;;;;;;6253877;23;20000;-73
2023/04/07 11:01:00;;;;;;;2.70;0.60;;;17.80;81.60;;;;;;6243521;23;20443;-73
2023/04/07 11:03:27;;;;;;;6.72;1.05;;;17.80;81.80;;;;;;6243995;23;20325;-73
2023/04/07 11:06:06;;;;;;;7.10;1.00;;;17.70;81.20;;;;;;6253207;23;20332;-73
2023/04/07 11:08:46;;;;;;;1.75;0.70;;;16.00;53.80;;;;;;6252993;23;20000;-73
2023/04/07 11:11:15;;;;;;;3.17;0.73;;;17.80;81.40;;;;;;6245480;23;19996;-72
2023/04/07 11:13:47;;;;;;;6.47;0.80;;;17.30;81.20;;;;;;6245955;23;20054;-72
2023/04/07 11:16:15;;;;;;;8.07;1.10;;;17.50;81.70;;;;;;6245578;23;20445;-73
2023/04/07 11:18:41;;;;;;;3.72;0.88;;;17.70;81.50;;;;;;6245893;23;20000;-74
2023/04/07 11:21:08;;;;;;;3.58;0.70;;;17.70;81.20;;;;;;6245348;23;19992;-73
2023/04/07 11:23:41;;;;;;;5.43;1.30;;;17.50;81.40;;;;;;6245876;23;20000;-73
2023/04/07 11:26:10;;;;;;;2.88;1.02;;;17.50;54.60;;;;;;6245822;23;20004;-73
2023/04/07 11:28:45;;;;;;;5.40;0.75;;;17.70;81.70;;;;;;6245855;23;20038;-73
2023/04/07 11:31:20;;;;;;;5.18;1.33;;;17.80;81.60;;;;;;6245876;23;20292;-72
2023/04/07 11:33:58;;;;;;;4.38;0.73;;;17.70;81.80;;;;;;6245338;23;20435;-73
2023/04/07 11:36:37;;;;;;;6.32;1.00;;;17.70;81.40;;;;;;6245820;23;20363;-73
2023/04/07 11:39:03;;;;;;;6.40;0.70;;;17.50;81.60;;;;;;6245318;23;20000;-73
2023/04/07 11:41:32;;;;;;;3.17;0.85;;;17.60;81.50;;;;;;6245713;23;20126;-73
2023/04/07 11:44:13;;;;;;;5.10;1.27;;;17.80;81.90;;;;;;6245171;23;20142;-73
2023/04/07 11:47:11;;;;;;;7.25;0.93;;;17.60;54.40;;;;;;6245232;23;20071;-73
2023/04/07 11:49:45;;;;;;;4.50;1.02;;;17.60;81.80;;;;;;6163174;23;20001;-73
2023/04/07 11:52:11;;;;;;;3.42;0.98;;;17.70;81.60;;;;;;6245572;23;20301;-73
2023/04/07 11:54:46;;;;;;;2.30;0.85;;;17.70;81.80;;;;;;6245471;23;20335;-73
2023/04/07 11:57:13;;;;;;;2.30;0.65;;;17.40;81.40;;;;;;6245586;23;19996;-73
2023/04/07 11:59:40;;;;;;;1.52;0.80;;;17.50;81.70;;;;;;6245256;23;20000;-73
2023/04/07 12:02:07;;;;;;;3.58;0.68;;;17.70;81.50;;;;;;6245420;23;20319;-73
2023/04/07 12:04:35;;;;;;;2.78;0.70;;;17.50;81.40;;;;;;6245553;23;20019;-73
2023/04/07 12:07:11;;;;;;;4.30;1.00;;;17.60;81.40;;;;;;6245431;23;20020;-73
2023/04/07 12:09:37;;;;;;;3.55;0.70;;;17.60;81.20;;;;;;6255510;23;20029;-73
2023/04/07 12:12:05;;;;;;;1.67;0.50;;;17.70;81.40;;;;;;6245266;23;20007;-73
2023/04/07 12:14:31;;;;;;;2.75;0.93;;;17.50;81.30;;;;;;6255349;23;20004;-73
2023/04/07 12:16:57;;;;;;;1.73;0.73;;;17.70;81.30;;;;;;6255329;23;19992;-73
2023/04/07 12:19:27;;;;;;;2.25;0.63;;;17.50;60.10;;;;;;6245326;23;20379;-73
2023/04/07 12:21:53;;;;;;;3.90;0.50;;;17.60;81.10;;;;;;6255188;23;20067;-73
2023/04/07 12:24:20;;;;;;;2.05;0.47;;;17.70;81.40;;;;;;6255171;23;20396;-74
2023/04/07 12:26:46;;;;;;;2.15;0.77;;;17.60;57.10;;;;;;6245448;23;19996;-73
2023/04/07 12:29:13;;;;;;;2.58;0.80;;;17.60;81.20;;;;;;6245446;23;20419;-73
2023/04/07 12:31:39;;;;;;;3.08;0.70;;;17.40;81.10;;;;;;6245070;23;20008;-74
2023/04/07 12:34:05;;;;;;;1.88;0.50;;;17.30;81.00;;;;;;6245430;23;20146;-73
2023/04/07 12:36:32;;;;;;;2.20;0.75;;;17.60;81.40;;;;;;6245552;23;20015;-73
2023/04/07 12:38:58;;;;;;;2.00;0.60;;;17.60;81.50;;;;;;6245329;23;20022;-74
2023/04/07 12:41:24;;;;;;;2.55;0.73;;;17.60;81.70;;;;;;6245448;23;20000;-73
2023/04/07 12:43:51;;;;;;;1.33;0.52;;;17.90;57.40;;;;;;6244920;23;20379;-73
2023/04/07 12:46:18;;;;;;;2.05;0.80;;;17.60;81.40;;;;;;6244961;23;20001;-73
2023/04/07 12:48:44;;;;;;;2.45;0.60;;;17.50;81.00;;;;;;6245318;23;19992;-74
2023/04/07 12:51:11;;;;;;;1.15;0.70;;;17.70;81.40;;;;;;6245270;23;20004;-73
2023/04/07 12:53:37;;;;;;;2.90;0.50;;;17.70;81.10;;;;;;6244837;23;20004;-73
2023/04/07 12:56:03;;;;;;;1.42;0.43;;;17.60;81.20;;;;;;6245206;23;20011;-74
2023/04/07 12:58:29;;;;;;;1.77;0.70;;;17.60;81.00;;;;;;6245197;23;20000;-74
2023/04/07 13:00:55;;;;;;;1.95;0.65;;;17.40;81.10;;;;;;6244824;23;20431;-73
2023/04/07 13:03:22;;;;;;;1.58;0.60;;;;;;;;;;6244601;23;20000;-73